Terminal Aerodrome Forecast
Issued by NWS

Home | Current Version | Previous Version | Text Only | Print | Product List | Glossary Off
Versions: 1 2 3 4 5 6 7 8 9 10 11 12 13

000
FTUS43 KBIS 290500
TAFJMS
TAF
KJMS 290522Z 2906/3006 30003KT P6SM VCFG SKC
      TEMPO 2908/2912 5SM BR
     FM291600 33007KT P6SM SCT060
     FM300100 04003KT P6SM SKC=

USA.gov is the U.S. government's official web portal to all federal, state and local government web resources and services.